^^
Grace C. Lehan Memorial Weather Station Historical Data
Daily Summary for April 24, 2021 Units:  Both    English   Metric
Daily Weekly Monthly Yearly
  High: Low: Average:
Temperature: 30.3 °F /  -0.9 °C 17.7 °F /  -7.9 °C 23.1 °F /  -4.9 °C
Dew Point: 7.8 °F /  -13.4 °C 2.5 °F /  -16.4 °C 5.7 °F /  -14.6 °C
Humidity: 60% 32% 48%
Wind Speed: 13mph /  20.9km/h - 5.9mph /  9.5km/h
Wind Gust: 27mph /  43.5km/h - -
Wind- - NW
Pressure: 30.10 in /  1019.2 hPa 30.02 in /  1016.5 hPa -
Precipitation: 0.00 in /  0 mm    
 
 
Tabular Data for April 24, 2021
Time Temperature Dew Point Pressure Wind Wind Speed Wind Gust Humidity Rainfall Rate (Hourly) solar
00:04 20.1 °F /  -6.6 °C 7 °F /  -13.9 °C 30.06in /  1017.8hPa WNW 6.1mph /  9.8km/h 22mph /  35.4km/h 56% 0.00in /  0mm 0 W/m2
00:09 20.1 °F /  -6.6 °C 6.9 °F /  -13.9 °C 30.06in /  1017.8hPa NW 6.6mph /  10.6km/h 18mph /  29km/h 56% 0.00in /  0mm 0 W/m2
00:14 20 °F /  -6.7 °C 6.8 °F /  -14 °C 30.05in /  1017.5hPa NW 9mph /  14.5km/h 22mph /  35.4km/h 56% 0.00in /  0mm 0 W/m2
00:19 20 °F /  -6.7 °C 6.8 °F /  -14 °C 30.05in /  1017.5hPa NNW 5.7mph /  9.2km/h 22mph /  35.4km/h 56% 0.00in /  0mm 0 W/m2
00:24 19.9 °F /  -6.7 °C 6.8 °F /  -14 °C 30.06in /  1017.8hPa NNW 4.6mph /  7.4km/h 22mph /  35.4km/h 56.2% 0.00in /  0mm 0 W/m2
00:29 19.9 °F /  -6.7 °C 7 °F /  -13.9 °C 30.05in /  1017.5hPa NNW 4.5mph /  7.2km/h 22mph /  35.4km/h 56.6% 0.00in /  0mm 0 W/m2
00:34 19.8 °F /  -6.8 °C 6.9 °F /  -13.9 °C 30.05in /  1017.5hPa NW 4.4mph /  7.1km/h 22mph /  35.4km/h 56.6% 0.00in /  0mm 0 W/m2
00:39 19.8 °F /  -6.8 °C 7 °F /  -13.9 °C 30.05in /  1017.5hPa NW 7.8mph /  12.6km/h 22mph /  35.4km/h 56.9% 0.00in /  0mm 0 W/m2
00:44 19.8 °F /  -6.8 °C 6.7 °F /  -14.1 °C 30.05in /  1017.5hPa NW 5.9mph /  9.5km/h 22mph /  35.4km/h 56% 0.00in /  0mm 0 W/m2
00:49 19.8 °F /  -6.8 °C 6.7 °F /  -14.1 °C 30.05in /  1017.5hPa NW 6.1mph /  9.8km/h 22mph /  35.4km/h 56.2% 0.00in /  0mm 0 W/m2
00:54 19.8 °F /  -6.8 °C 6.9 °F /  -13.9 °C 30.05in /  1017.5hPa WNW 7.7mph /  12.4km/h 22mph /  35.4km/h 56.7% 0.00in /  0mm 0 W/m2
00:59 19.8 °F /  -6.8 °C 6.7 °F /  -14.1 °C 30.05in /  1017.5hPa NW 11.5mph /  18.5km/h 22mph /  35.4km/h 56% 0.00in /  0mm 0 W/m2
01:04 19.8 °F /  -6.8 °C 6.7 °F /  -14.1 °C 30.05in /  1017.5hPa WNW 7.8mph /  12.6km/h 22mph /  35.4km/h 56% 0.00in /  0mm 0 W/m2
01:09 19.8 °F /  -6.8 °C 6.7 °F /  -14.1 °C 30.05in /  1017.5hPa WNW 9.5mph /  15.3km/h 21mph /  33.8km/h 56% 0.00in /  0mm 0 W/m2
01:14 19.8 °F /  -6.8 °C 6.7 °F /  -14.1 °C 30.05in /  1017.5hPa WNW 11.1mph /  17.9km/h 22mph /  35.4km/h 56% 0.00in /  0mm 0 W/m2
01:19 19.7 °F /  -6.8 °C 6.7 °F /  -14.1 °C 30.06in /  1017.8hPa WNW 9.9mph /  15.9km/h 22mph /  35.4km/h 56.2% 0.00in /  0mm 0 W/m2
01:24 19.7 °F /  -6.8 °C 7 °F /  -13.9 °C 30.07in /  1018.2hPa WNW 9mph /  14.5km/h 22mph /  35.4km/h 57% 0.00in /  0mm 0 W/m2
01:29 19.7 °F /  -6.8 °C 6.9 °F /  -13.9 °C 30.07in /  1018.2hPa WNW 7.5mph /  12.1km/h 22mph /  35.4km/h 57% 0.00in /  0mm 0 W/m2
01:34 19.6 °F /  -6.9 °C 6.8 °F /  -14 °C 30.06in /  1017.8hPa NW 6.6mph /  10.6km/h 22mph /  35.4km/h 57% 0.00in /  0mm 0 W/m2
01:39 19.5 °F /  -6.9 °C 6.8 °F /  -14 °C 30.07in /  1018.2hPa NW 8mph /  12.9km/h 16mph /  25.7km/h 57% 0.00in /  0mm 0 W/m2
01:44 19.5 °F /  -6.9 °C 6.8 °F /  -14 °C 30.07in /  1018.2hPa WNW 10mph /  16.1km/h 17mph /  27.4km/h 57% 0.00in /  0mm 0 W/m2
01:49 19.5 °F /  -6.9 °C 6.8 °F /  -14 °C 30.07in /  1018.2hPa WNW 7.7mph /  12.4km/h 17mph /  27.4km/h 57% 0.00in /  0mm 0 W/m2
01:54 19.4 °F /  -7 °C 6.8 °F /  -14 °C 30.07in /  1018.2hPa NW 4.8mph /  7.7km/h 17mph /  27.4km/h 57.4% 0.00in /  0mm 0 W/m2
01:59 19.4 °F /  -7 °C 7.6 °F /  -13.6 °C 30.07in /  1018.2hPa NW 4.5mph /  7.2km/h 17mph /  27.4km/h 59.5% 0.00in /  0mm 0 W/m2
02:04 19.3 °F /  -7.1 °C 6.9 °F /  -13.9 °C 30.07in /  1018.2hPa WNW 3.6mph /  5.8km/h 17mph /  27.4km/h 58% 0.00in /  0mm 0 W/m2
02:09 19.2 °F /  -7.1 °C 7.1 °F /  -13.8 °C 30.07in /  1018.2hPa NW 4.2mph /  6.8km/h 13mph /  20.9km/h 58.7% 0.00in /  0mm 0 W/m2
02:14 19.1 °F /  -7.2 °C 7.1 °F /  -13.8 °C 30.07in /  1018.2hPa NW 5mph /  8km/h 13mph /  20.9km/h 59% 0.00in /  0mm 0 W/m2
02:19 19.1 °F /  -7.2 °C 7.1 °F /  -13.8 °C 30.07in /  1018.2hPa WNW 5.9mph /  9.5km/h 14mph /  22.5km/h 59% 0.00in /  0mm 0 W/m2
02:24 19 °F /  -7.2 °C 7.1 °F /  -13.8 °C 30.07in /  1018.2hPa WNW 3.6mph /  5.8km/h 14mph /  22.5km/h 59% 0.00in /  0mm 0 W/m2
02:29 18.9 °F /  -7.3 °C 7.2 °F /  -13.8 °C 30.07in /  1018.2hPa WNW 3.9mph /  6.3km/h 14mph /  22.5km/h 59.5% 0.00in /  0mm 0 W/m2
02:34 18.8 °F /  -7.3 °C 7.3 °F /  -13.7 °C 30.07in /  1018.2hPa WNW 3.5mph /  5.6km/h 14mph /  22.5km/h 60% 0.00in /  0mm 0 W/m2
02:39 18.8 °F /  -7.3 °C 7.2 °F /  -13.8 °C 30.07in /  1018.2hPa WNW 7.7mph /  12.4km/h 17mph /  27.4km/h 60% 0.00in /  0mm 0 W/m2
02:44 18.7 °F /  -7.4 °C 7.1 °F /  -13.8 °C 30.07in /  1018.2hPa NW 3.4mph /  5.5km/h 17mph /  27.4km/h 60% 0.00in /  0mm 0 W/m2
02:49 18.6 °F /  -7.4 °C 7.1 °F /  -13.8 °C 30.07in /  1018.2hPa WNW 3.5mph /  5.6km/h 17mph /  27.4km/h 60% 0.00in /  0mm 0 W/m2
02:54 18.6 °F /  -7.4 °C 7 °F /  -13.9 °C 30.07in /  1018.2hPa WNW 4.7mph /  7.6km/h 17mph /  27.4km/h 60% 0.00in /  0mm 0 W/m2
02:59 18.5 °F /  -7.5 °C 6.9 °F /  -13.9 °C 30.07in /  1018.2hPa WNW 4mph /  6.4km/h 17mph /  27.4km/h 60% 0.00in /  0mm 0 W/m2
03:04 18.4 °F /  -7.6 °C 6.9 °F /  -13.9 °C 30.07in /  1018.2hPa WNW 6.2mph /  10km/h 17mph /  27.4km/h 60% 0.00in /  0mm 0 W/m2
03:09 18.4 °F /  -7.6 °C 6.9 °F /  -13.9 °C 30.07in /  1018.2hPa WNW 7.4mph /  11.9km/h 14mph /  22.5km/h 60% 0.00in /  0mm 0 W/m2
03:14 18.4 °F /  -7.6 °C 6.9 °F /  -13.9 °C 30.07in /  1018.2hPa NW 5.8mph /  9.3km/h 14mph /  22.5km/h 60% 0.00in /  0mm 0 W/m2
03:19 18.4 °F /  -7.6 °C 6.8 °F /  -14 °C 30.06in /  1017.8hPa WNW 5.5mph /  8.9km/h 15mph /  24.1km/h 60% 0.00in /  0mm 0 W/m2
03:24 18.3 °F /  -7.6 °C 6.8 °F /  -14 °C 30.06in /  1017.8hPa NW 5.5mph /  8.9km/h 15mph /  24.1km/h 60% 0.00in /  0mm 0 W/m2
03:29 18.2 °F /  -7.7 °C 6.7 °F /  -14.1 °C 30.07in /  1018.2hPa NW 6.8mph /  10.9km/h 15mph /  24.1km/h 60% 0.00in /  0mm 0 W/m2
03:34 18.2 °F /  -7.7 °C 6.7 °F /  -14.1 °C 30.06in /  1017.8hPa NW 6.7mph /  10.8km/h 15mph /  24.1km/h 60% 0.00in /  0mm 0 W/m2
03:39 18.2 °F /  -7.7 °C 6.7 °F /  -14.1 °C 30.06in /  1017.8hPa WNW 5.7mph /  9.2km/h 15mph /  24.1km/h 60% 0.00in /  0mm 0 W/m2
03:44 18.2 °F /  -7.7 °C 6.7 °F /  -14.1 °C 30.07in /  1018.2hPa WNW 6.7mph /  10.8km/h 17mph /  27.4km/h 60% 0.00in /  0mm 0 W/m2
03:49 18.2 °F /  -7.7 °C 6.7 °F /  -14.1 °C 30.07in /  1018.2hPa NW 3.9mph /  6.3km/h 17mph /  27.4km/h 60% 0.00in /  0mm 0 W/m2
03:54 18.1 °F /  -7.7 °C 6.6 °F /  -14.1 °C 30.07in /  1018.2hPa NW 3.9mph /  6.3km/h 17mph /  27.4km/h 60% 0.00in /  0mm 0 W/m2
03:59 18.1 °F /  -7.7 °C 6.6 °F /  -14.1 °C 30.07in /  1018.2hPa WNW 4.8mph /  7.7km/h 17mph /  27.4km/h 60% 0.00in /  0mm 0 W/m2
04:00 18.1 °F /  -7.7 °C 6.6 °F /  -14.1 °C 30.07in /  1018.2hPa WNW 1mph /  1.6km/h 17mph /  27.4km/h 60% 0.00in /  0mm 0 W/m2
04:09 18 °F /  -7.8 °C 6.5 °F /  -14.2 °C 30.07in /  1018.2hPa WNW 3.4mph /  5.5km/h 7mph /  11.3km/h 60% 0.00in /  0mm 0 W/m2
04:14 18 °F /  -7.8 °C 6.5 °F /  -14.2 °C 30.07in /  1018.2hPa NNW 4.2mph /  6.8km/h 10mph /  16.1km/h 60% 0.00in /  0mm 0 W/m2
04:19 18 °F /  -7.8 °C 6.5 °F /  -14.2 °C 30.07in /  1018.2hPa NW 5.6mph /  9km/h 13mph /  20.9km/h 60% 0.00in /  0mm 0 W/m2
04:24 18 °F /  -7.8 °C 6.5 °F /  -14.2 °C 30.07in /  1018.2hPa NW 6.8mph /  10.9km/h 13mph /  20.9km/h 60% 0.00in /  0mm 0 W/m2
04:29 18.1 °F /  -7.7 °C 6.5 °F /  -14.2 °C 30.07in /  1018.2hPa NW 4.8mph /  7.7km/h 13mph /  20.9km/h 59.8% 0.00in /  0mm 0 W/m2
04:34 18 °F /  -7.8 °C 6.5 °F /  -14.2 °C 30.07in /  1018.2hPa NW 3.4mph /  5.5km/h 13mph /  20.9km/h 60% 0.00in /  0mm 0 W/m2
04:39 18 °F /  -7.8 °C 6.3 °F /  -14.3 °C 30.08in /  1018.5hPa WNW 4.1mph /  6.6km/h 7mph /  11.3km/h 59.5% 0.00in /  0mm 0 W/m2
04:44 18 °F /  -7.8 °C 6.4 °F /  -14.2 °C 30.08in /  1018.5hPa WNW 4.2mph /  6.8km/h 13mph /  20.9km/h 59.8% 0.00in /  0mm 0 W/m2
04:49 18 °F /  -7.8 °C 6.4 °F /  -14.2 °C 30.08in /  1018.5hPa WNW 3.5mph /  5.6km/h 13mph /  20.9km/h 59.7% 0.00in /  0mm 0 W/m2
04:54 18 °F /  -7.8 °C 6.3 °F /  -14.3 °C 30.08in /  1018.5hPa WNW 3.1mph /  5km/h 13mph /  20.9km/h 59.7% 0.00in /  0mm 0 W/m2
04:59 18 °F /  -7.8 °C 6.2 °F /  -14.3 °C 30.09in /  1018.8hPa NW 5mph /  8km/h 13mph /  20.9km/h 59.2% 0.00in /  0mm 0 W/m2
05:04 18 °F /  -7.8 °C 6.1 °F /  -14.4 °C 30.09in /  1018.8hPa NW 3.2mph /  5.1km/h 13mph /  20.9km/h 59% 0.00in /  0mm 0 W/m2
05:09 18 °F /  -7.8 °C 5.8 °F /  -14.6 °C 30.09in /  1018.8hPa NW 4.8mph /  7.7km/h 15mph /  24.1km/h 58.1% 0.00in /  0mm 0 W/m2
05:14 18 °F /  -7.8 °C 5.7 °F /  -14.6 °C 30.09in /  1018.8hPa NW 5.6mph /  9km/h 15mph /  24.1km/h 58% 0.00in /  0mm 0 W/m2
05:19 18.1 °F /  -7.7 °C 5.5 °F /  -14.7 °C 30.09in /  1018.8hPa NW 4.6mph /  7.4km/h 15mph /  24.1km/h 57.3% 0.00in /  0mm 0 W/m2
05:24 18.1 °F /  -7.7 °C 5.4 °F /  -14.8 °C 30.09in /  1018.8hPa WNW 3.8mph /  6.1km/h 15mph /  24.1km/h 57% 0.00in /  0mm 0 W/m2
05:29 18.1 °F /  -7.7 °C 5.4 °F /  -14.8 °C 30.09in /  1018.8hPa WNW 2.8mph /  4.5km/h 15mph /  24.1km/h 57% 0.00in /  0mm 0 W/m2
05:34 18.1 °F /  -7.7 °C 5.4 °F /  -14.8 °C 30.09in /  1018.8hPa NW 3.2mph /  5.1km/h 15mph /  24.1km/h 57% 0.00in /  0mm 0 W/m2
05:39 18 °F /  -7.8 °C 5.4 °F /  -14.8 °C 30.09in /  1018.8hPa NNW 2.4mph /  3.9km/h 8mph /  12.9km/h 57% 0.00in /  0mm 0 W/m2
05:44 18 °F /  -7.8 °C 5.4 °F /  -14.8 °C 30.10in /  1019.2hPa NW 3.1mph /  5km/h 8mph /  12.9km/h 57% 0.00in /  0mm 0 W/m2
05:49 18 °F /  -7.8 °C 5.3 °F /  -14.8 °C 30.10in /  1019.2hPa NW 4mph /  6.4km/h 11mph /  17.7km/h 57% 0.00in /  0mm 0 W/m2
05:54 17.9 °F /  -7.8 °C 5.3 °F /  -14.8 °C 30.09in /  1018.8hPa NW 2.7mph /  4.3km/h 11mph /  17.7km/h 57% 0.00in /  0mm 0 W/m2
05:59 17.9 °F /  -7.8 °C 5.3 °F /  -14.8 °C 30.09in /  1018.8hPa NW 1.8mph /  2.9km/h 11mph /  17.7km/h 57% 0.00in /  0mm 0 W/m2
06:04 17.9 °F /  -7.8 °C 5.3 °F /  -14.8 °C 30.09in /  1018.8hPa NW 1.9mph /  3.1km/h 11mph /  17.7km/h 57% 0.00in /  0mm 0 W/m2
06:09 17.8 °F /  -7.9 °C 5.2 °F /  -14.9 °C 30.09in /  1018.8hPa WNW 1.6mph /  2.6km/h 6mph /  9.7km/h 57% 0.00in /  0mm 0 W/m2
06:14 17.7 °F /  -7.9 °C 5.1 °F /  -14.9 °C 30.09in /  1018.8hPa NW 3.3mph /  5.3km/h 7mph /  11.3km/h 56.9% 0.00in /  0mm 0 W/m2
06:19 17.7 °F /  -7.9 °C 4.7 °F /  -15.2 °C 30.09in /  1018.8hPa NW 2.3mph /  3.7km/h 9mph /  14.5km/h 56% 0.00in /  0mm 0 W/m2
06:24 17.7 °F /  -7.9 °C 4.9 °F /  -15.1 °C 30.08in /  1018.5hPa NNW 3.1mph /  5km/h 9mph /  14.5km/h 56.4% 0.00in /  0mm 0 W/m2
06:29 17.7 °F /  -7.9 °C 4.7 °F /  -15.2 °C 30.09in /  1018.8hPa NNW 2.2mph /  3.5km/h 9mph /  14.5km/h 56% 0.00in /  0mm 0 W/m2
06:34 17.7 °F /  -7.9 °C 4.7 °F /  -15.2 °C 30.09in /  1018.8hPa NW 5.2mph /  8.4km/h 13mph /  20.9km/h 56% 0.00in /  0mm 0 W/m2
06:39 17.8 °F /  -7.9 °C 4.5 °F /  -15.3 °C 30.09in /  1018.8hPa NW 3.7mph /  6km/h 13mph /  20.9km/h 55.2% 0.00in /  0mm 0 W/m2
06:44 17.9 °F /  -7.8 °C 4.5 °F /  -15.3 °C 30.09in /  1018.8hPa NW 1.3mph /  2.1km/h 13mph /  20.9km/h 55% 0.00in /  0mm 0 W/m2
06:49 17.9 °F /  -7.8 °C 4.5 °F /  -15.3 °C 30.09in /  1018.8hPa NW 2.7mph /  4.3km/h 13mph /  20.9km/h 55% 0.00in /  0mm 0 W/m2
06:54 17.9 °F /  -7.8 °C 4.6 °F /  -15.2 °C 30.10in /  1019.2hPa NW 3.2mph /  5.1km/h 13mph /  20.9km/h 55.2% 0.00in /  0mm 0 W/m2
06:59 17.9 °F /  -7.8 °C 4.5 °F /  -15.3 °C 30.10in /  1019.2hPa NW 4mph /  6.4km/h 13mph /  20.9km/h 55.1% 0.00in /  0mm 0 W/m2
07:04 17.9 °F /  -7.8 °C 4.5 °F /  -15.3 °C 30.10in /  1019.2hPa NW 3.6mph /  5.8km/h 13mph /  20.9km/h 55% 0.00in /  0mm 0 W/m2
07:09 17.9 °F /  -7.8 °C 4.4 °F /  -15.3 °C 30.10in /  1019.2hPa WNW 3mph /  4.8km/h 7mph /  11.3km/h 54.9% 0.00in /  0mm 0 W/m2
07:14 17.9 °F /  -7.8 °C 4.1 °F /  -15.5 °C 30.10in /  1019.2hPa WNW 2mph /  3.2km/h 7mph /  11.3km/h 54.1% 0.00in /  0mm 5 W/m2
07:19 17.9 °F /  -7.8 °C 4.4 °F /  -15.3 °C 30.10in /  1019.2hPa WNW 3.5mph /  5.6km/h 7mph /  11.3km/h 54.9% 0.00in /  0mm 9 W/m2
07:24 17.9 °F /  -7.8 °C 4.3 °F /  -15.4 °C 30.10in /  1019.2hPa NW 4.1mph /  6.6km/h 7mph /  11.3km/h 54.6% 0.00in /  0mm 12 W/m2
07:29 18 °F /  -7.8 °C 4.4 °F /  -15.3 °C 30.10in /  1019.2hPa NW 2.8mph /  4.5km/h 7mph /  11.3km/h 54.7% 0.00in /  0mm 16 W/m2
07:34 18.1 °F /  -7.7 °C 4.5 °F /  -15.3 °C 30.10in /  1019.2hPa WNW 4mph /  6.4km/h 10mph /  16.1km/h 54.6% 0.00in /  0mm 21 W/m2
07:39 18.2 °F /  -7.7 °C 4.3 °F /  -15.4 °C 30.10in /  1019.2hPa WNW 5.9mph /  9.5km/h 11mph /  17.7km/h 53.8% 0.00in /  0mm 30 W/m2
07:44 18.5 °F /  -7.5 °C 4.2 °F /  -15.4 °C 30.09in /  1018.8hPa WNW 5.6mph /  9km/h 14mph /  22.5km/h 53% 0.00in /  0mm 28 W/m2
07:49 18.7 °F /  -7.4 °C 4 °F /  -15.6 °C 30.10in /  1019.2hPa WNW 8.1mph /  13km/h 21mph /  33.8km/h 52.2% 0.00in /  0mm 42 W/m2
07:54 18.9 °F /  -7.3 °C 3.8 °F /  -15.7 °C 30.10in /  1019.2hPa WNW 3.4mph /  5.5km/h 21mph /  33.8km/h 51.2% 0.00in /  0mm 39 W/m2
07:59 19.1 °F /  -7.2 °C 4.4 °F /  -15.3 °C 30.10in /  1019.2hPa NW 2.9mph /  4.7km/h 21mph /  33.8km/h 52% 0.00in /  0mm 46 W/m2
08:00 19.3 °F /  -7.1 °C 4.6 °F /  -15.2 °C 30.10in /  1019.2hPa WNW 8mph /  12.9km/h 21mph /  33.8km/h 52% 0.00in /  0mm 63 W/m2
08:09 19.5 °F /  -6.9 °C 3.9 °F /  -15.6 °C 30.10in /  1019.2hPa WNW 6.1mph /  9.8km/h 12mph /  19.3km/h 50% 0.00in /  0mm 54 W/m2
08:14 19.6 °F /  -6.9 °C 3.7 °F /  -15.7 °C 30.10in /  1019.2hPa WNW 8.3mph /  13.4km/h 16mph /  25.7km/h 49.3% 0.00in /  0mm 79 W/m2
08:19 19.6 °F /  -6.9 °C 3.5 °F /  -15.8 °C 30.10in /  1019.2hPa WNW 8.9mph /  14.3km/h 21mph /  33.8km/h 48.8% 0.00in /  0mm 49 W/m2
08:24 19.6 °F /  -6.9 °C 3.5 °F /  -15.8 °C 30.10in /  1019.2hPa WNW 8.9mph /  14.3km/h 21mph /  33.8km/h 48.9% 0.00in /  0mm 113 W/m2
08:29 19.7 °F /  -6.8 °C 3.2 °F /  -16 °C 30.10in /  1019.2hPa WNW 6.2mph /  10km/h 21mph /  33.8km/h 48% 0.00in /  0mm 137 W/m2
08:34 20 °F /  -6.7 °C 3.6 °F /  -15.8 °C 30.10in /  1019.2hPa NW 7.2mph /  11.6km/h 21mph /  33.8km/h 48.3% 0.00in /  0mm 128 W/m2
08:39 20.3 °F /  -6.5 °C 3.8 °F /  -15.7 °C 30.10in /  1019.2hPa NW 7mph /  11.3km/h 14mph /  22.5km/h 48% 0.00in /  0mm 128 W/m2
08:44 20.5 °F /  -6.4 °C 3.5 °F /  -15.8 °C 30.10in /  1019.2hPa WNW 8mph /  12.9km/h 14mph /  22.5km/h 47% 0.00in /  0mm 127 W/m2
08:49 20.6 °F /  -6.3 °C 3.6 °F /  -15.8 °C 30.10in /  1019.2hPa WNW 6.2mph /  10km/h 14mph /  22.5km/h 47% 0.00in /  0mm 176 W/m2
08:54 20.7 °F /  -6.3 °C 3.4 °F /  -15.9 °C 30.10in /  1019.2hPa WNW 3.9mph /  6.3km/h 14mph /  22.5km/h 46.5% 0.00in /  0mm 195 W/m2
08:59 21 °F /  -6.1 °C 3.9 °F /  -15.6 °C 30.10in /  1019.2hPa WNW 5mph /  8km/h 15mph /  24.1km/h 47% 0.00in /  0mm 179 W/m2
09:04 21.4 °F /  -5.9 °C 3.8 °F /  -15.7 °C 30.10in /  1019.2hPa NW 6.1mph /  9.8km/h 15mph /  24.1km/h 45.9% 0.00in /  0mm 160 W/m2
09:09 21.7 °F /  -5.7 °C 3.5 °F /  -15.8 °C 30.10in /  1019.2hPa NW 8.7mph /  14km/h 19mph /  30.6km/h 44.7% 0.00in /  0mm 227 W/m2
09:14 21.7 °F /  -5.7 °C 3.1 °F /  -16.1 °C 30.10in /  1019.2hPa WNW 8.3mph /  13.4km/h 19mph /  30.6km/h 44% 0.00in /  0mm 227 W/m2
09:19 21.7 °F /  -5.7 °C 3.2 °F /  -16 °C 30.10in /  1019.2hPa WNW 7.1mph /  11.4km/h 19mph /  30.6km/h 44% 0.00in /  0mm 279 W/m2
09:24 21.8 °F /  -5.7 °C 3.3 °F /  -15.9 °C 30.10in /  1019.2hPa WNW 5.9mph /  9.5km/h 19mph /  30.6km/h 44% 0.00in /  0mm 209 W/m2
09:29 22.1 °F /  -5.5 °C 3.5 °F /  -15.8 °C 30.10in /  1019.2hPa WNW 6.1mph /  9.8km/h 19mph /  30.6km/h 44% 0.00in /  0mm 297 W/m2
09:34 22.4 °F /  -5.3 °C 3.2 °F /  -16 °C 30.09in /  1018.8hPa WNW 8.6mph /  13.8km/h 19mph /  30.6km/h 42.8% 0.00in /  0mm 288 W/m2
09:39 22.6 °F /  -5.2 °C 3.4 °F /  -15.9 °C 30.10in /  1019.2hPa NW 5.4mph /  8.7km/h 18mph /  29km/h 42.8% 0.00in /  0mm 162 W/m2
09:44 22.8 °F /  -5.1 °C 3.3 °F /  -15.9 °C 30.09in /  1018.8hPa WNW 8.3mph /  13.4km/h 18mph /  29km/h 42.3% 0.00in /  0mm 151 W/m2
09:49 22.8 °F /  -5.1 °C 2.9 °F /  -16.2 °C 30.09in /  1018.8hPa WNW 10mph /  16.1km/h 20mph /  32.2km/h 41.5% 0.00in /  0mm 244 W/m2
09:54 22.7 °F /  -5.2 °C 2.7 °F /  -16.3 °C 30.09in /  1018.8hPa WNW 8.3mph /  13.4km/h 20mph /  32.2km/h 41.2% 0.00in /  0mm 204 W/m2
09:59 22.7 °F /  -5.2 °C 2.8 °F /  -16.2 °C 30.09in /  1018.8hPa WNW 8.8mph /  14.2km/h 26mph /  41.8km/h 41.4% 0.00in /  0mm 149 W/m2
10:04 22.7 °F /  -5.2 °C 3 °F /  -16.1 °C 30.09in /  1018.8hPa WNW 8.5mph /  13.7km/h 26mph /  41.8km/h 41.9% 0.00in /  0mm 144 W/m2
10:09 22.6 °F /  -5.2 °C 2.5 °F /  -16.4 °C 30.09in /  1018.8hPa WNW 8.6mph /  13.8km/h 18mph /  29km/h 41.1% 0.00in /  0mm 135 W/m2
10:14 22.7 °F /  -5.2 °C 2.8 °F /  -16.2 °C 30.09in /  1018.8hPa WNW 11.3mph /  18.2km/h 23mph /  37km/h 41.6% 0.00in /  0mm 237 W/m2
10:19 22.8 °F /  -5.1 °C 2.7 °F /  -16.3 °C 30.09in /  1018.8hPa WNW 9.4mph /  15.1km/h 23mph /  37km/h 41% 0.00in /  0mm 264 W/m2
10:24 23.1 °F /  -4.9 °C 3 °F /  -16.1 °C 30.09in /  1018.8hPa NW 7.5mph /  12.1km/h 23mph /  37km/h 41.2% 0.00in /  0mm 253 W/m2
10:29 23.6 °F /  -4.7 °C 3.5 °F /  -15.8 °C 30.09in /  1018.8hPa WNW 7mph /  11.3km/h 23mph /  37km/h 41.2% 0.00in /  0mm 357 W/m2
10:34 24.1 °F /  -4.4 °C 4.1 °F /  -15.5 °C 30.09in /  1018.8hPa West 4.9mph /  7.9km/h 23mph /  37km/h 41.5% 0.00in /  0mm 357 W/m2
10:39 24.9 °F /  -3.9 °C 4.4 °F /  -15.3 °C 30.09in /  1018.8hPa WNW 8.1mph /  13km/h 19mph /  30.6km/h 40.8% 0.00in /  0mm 311 W/m2
10:44 25.4 °F /  -3.7 °C 4.2 °F /  -15.4 °C 30.09in /  1018.8hPa NW 5.1mph /  8.2km/h 19mph /  30.6km/h 39.7% 0.00in /  0mm 468 W/m2
10:49 25.9 °F /  -3.4 °C 4.5 °F /  -15.3 °C 30.08in /  1018.5hPa NW 7.1mph /  11.4km/h 19mph /  30.6km/h 39.2% 0.00in /  0mm 494 W/m2
10:54 26.5 °F /  -3.1 °C 4.3 °F /  -15.4 °C 30.08in /  1018.5hPa WNW 6.9mph /  11.1km/h 19mph /  30.6km/h 38% 0.00in /  0mm 522 W/m2
10:59 27 °F /  -2.8 °C 4 °F /  -15.6 °C 30.08in /  1018.5hPa WNW 10.4mph /  16.7km/h 20mph /  32.2km/h 36.8% 0.00in /  0mm 527 W/m2
11:04 26.9 °F /  -2.8 °C 3.6 °F /  -15.8 °C 30.08in /  1018.5hPa WNW 8.1mph /  13km/h 20mph /  32.2km/h 36.2% 0.00in /  0mm 529 W/m2
11:09 26.9 °F /  -2.8 °C 4.2 °F /  -15.4 °C 30.08in /  1018.5hPa NW 7.5mph /  12.1km/h 20mph /  32.2km/h 37% 0.00in /  0mm 292 W/m2
11:14 27.1 °F /  -2.7 °C 3.5 °F /  -15.8 °C 30.07in /  1018.2hPa WNW 9.4mph /  15.1km/h 20mph /  32.2km/h 35.7% 0.00in /  0mm 165 W/m2
11:19 27.1 °F /  -2.7 °C 3.7 °F /  -15.7 °C 30.07in /  1018.2hPa WNW 7.3mph /  11.7km/h 20mph /  32.2km/h 35.9% 0.00in /  0mm 128 W/m2
11:24 27.2 °F /  -2.7 °C 3.6 °F /  -15.8 °C 30.07in /  1018.2hPa WNW 11mph /  17.7km/h 22mph /  35.4km/h 35.7% 0.00in /  0mm 371 W/m2
11:29 27 °F /  -2.8 °C 3.2 °F /  -16 °C 30.07in /  1018.2hPa WNW 9.9mph /  15.9km/h 22mph /  35.4km/h 35.3% 0.00in /  0mm 202 W/m2
11:34 26.8 °F /  -2.9 °C 3 °F /  -16.1 °C 30.07in /  1018.2hPa NW 10.4mph /  16.7km/h 22mph /  35.4km/h 35.1% 0.00in /  0mm 373 W/m2
11:39 26.9 °F /  -2.8 °C 3.3 °F /  -15.9 °C 30.06in /  1017.8hPa WNW 7.1mph /  11.4km/h 21mph /  33.8km/h 35.7% 0.00in /  0mm 373 W/m2
11:44 27.1 °F /  -2.7 °C 3.9 °F /  -15.6 °C 30.06in /  1017.8hPa WNW 7mph /  11.3km/h 21mph /  33.8km/h 36.3% 0.00in /  0mm 162 W/m2
11:49 27.6 °F /  -2.4 °C 4.3 °F /  -15.4 °C 30.06in /  1017.8hPa WNW 6.8mph /  10.9km/h 21mph /  33.8km/h 36.2% 0.00in /  0mm 156 W/m2
11:54 28.1 °F /  -2.2 °C 4.3 °F /  -15.4 °C 30.05in /  1017.5hPa WNW 6.8mph /  10.9km/h 21mph /  33.8km/h 35.6% 0.00in /  0mm 142 W/m2
11:59 28.3 °F /  -2.1 °C 4.2 °F /  -15.4 °C 30.05in /  1017.5hPa NW 6.5mph /  10.5km/h 21mph /  33.8km/h 35% 0.00in /  0mm 169 W/m2
12:00 28.4 °F /  -2 °C 4.3 °F /  -15.4 °C 30.05in /  1017.5hPa West 4.5mph /  7.2km/h 21mph /  33.8km/h 35% 0.00in /  0mm 218 W/m2
12:09 28.7 °F /  -1.8 °C 4.3 °F /  -15.4 °C 30.05in /  1017.5hPa WNW 10.5mph /  16.9km/h 21mph /  33.8km/h 34.6% 0.00in /  0mm 554 W/m2
12:14 28.6 °F /  -1.9 °C 4.5 °F /  -15.3 °C 30.05in /  1017.5hPa WNW 9.1mph /  14.6km/h 21mph /  33.8km/h 35% 0.00in /  0mm 468 W/m2
12:19 28.6 °F /  -1.9 °C 4.5 °F /  -15.3 °C 30.05in /  1017.5hPa WNW 8.1mph /  13km/h 21mph /  33.8km/h 35% 0.00in /  0mm 468 W/m2
12:24 28.8 °F /  -1.8 °C 4.6 °F /  -15.2 °C 30.04in /  1017.2hPa WNW 10.2mph /  16.4km/h 21mph /  33.8km/h 35.1% 0.00in /  0mm 276 W/m2
12:29 28.8 °F /  -1.8 °C 4.6 °F /  -15.2 °C 30.04in /  1017.2hPa WNW 8.7mph /  14km/h 21mph /  33.8km/h 35% 0.00in /  0mm 151 W/m2
12:34 28.9 °F /  -1.7 °C 4.6 °F /  -15.2 °C 30.04in /  1017.2hPa WNW 11.8mph /  19km/h 23mph /  37km/h 35% 0.00in /  0mm 153 W/m2
12:39 28.9 °F /  -1.7 °C 4.1 °F /  -15.5 °C 30.04in /  1017.2hPa WNW 8.6mph /  13.8km/h 23mph /  37km/h 34.2% 0.00in /  0mm 83 W/m2
12:44 29 °F /  -1.7 °C 4.7 °F /  -15.2 °C 30.03in /  1016.8hPa WNW 9.3mph /  15km/h 23mph /  37km/h 34.8% 0.00in /  0mm 171 W/m2
12:49 29.3 °F /  -1.5 °C 4.5 °F /  -15.3 °C 30.03in /  1016.8hPa WNW 10.2mph /  16.4km/h 23mph /  37km/h 34.1% 0.00in /  0mm 155 W/m2
12:54 29.4 °F /  -1.4 °C 4.5 °F /  -15.3 °C 30.03in /  1016.8hPa WNW 8.5mph /  13.7km/h 23mph /  37km/h 34% 0.00in /  0mm 153 W/m2
12:59 29.6 °F /  -1.3 °C 4.9 °F /  -15.1 °C 30.03in /  1016.8hPa WNW 6.9mph /  11.1km/h 23mph /  37km/h 34.3% 0.00in /  0mm 283 W/m2
13:04 29.8 °F /  -1.2 °C 4.8 °F /  -15.1 °C 30.03in /  1016.8hPa NW 7.8mph /  12.6km/h 23mph /  37km/h 33.8% 0.00in /  0mm 283 W/m2
13:09 29.8 °F /  -1.2 °C 3.9 °F /  -15.6 °C 30.03in /  1016.8hPa WNW 13mph /  20.9km/h 23mph /  37km/h 32.4% 0.00in /  0mm 262 W/m2
13:14 29.6 °F /  -1.3 °C 3.4 °F /  -15.9 °C 30.02in /  1016.5hPa NW 12.7mph /  20.4km/h 27mph /  43.5km/h 32% 0.00in /  0mm 207 W/m2
13:19 29.5 °F /  -1.4 °C 3.8 °F /  -15.7 °C 30.02in /  1016.5hPa NW 9.2mph /  14.8km/h 27mph /  43.5km/h 32.8% 0.00in /  0mm 309 W/m2
13:24 29.5 °F /  -1.4 °C 4 °F /  -15.6 °C 30.03in /  1016.8hPa NW 10.1mph /  16.3km/h 27mph /  43.5km/h 33% 0.00in /  0mm 309 W/m2
13:29 29.6 °F /  -1.3 °C 4 °F /  -15.6 °C 30.03in /  1016.8hPa NW 10.7mph /  17.2km/h 27mph /  43.5km/h 33% 0.00in /  0mm 229 W/m2
13:34 29.8 °F /  -1.2 °C 4.6 °F /  -15.2 °C 30.03in /  1016.8hPa NW 10.3mph /  16.6km/h 27mph /  43.5km/h 33.7% 0.00in /  0mm 271 W/m2
13:39 29.8 °F /  -1.2 °C 4.5 °F /  -15.3 °C 30.03in /  1016.8hPa NW 9.3mph /  15km/h 20mph /  32.2km/h 33.4% 0.00in /  0mm 109 W/m2
13:44 30 °F /  -1.1 °C 4.7 °F /  -15.2 °C 30.02in /  1016.5hPa NW 7.4mph /  11.9km/h 20mph /  32.2km/h 33.5% 0.00in /  0mm 160 W/m2
13:49 30.1 °F /  -1.1 °C 5 °F /  -15 °C 30.02in /  1016.5hPa WNW 10.5mph /  16.9km/h 23mph /  37km/h 33.8% 0.00in /  0mm 334 W/m2
13:54 30 °F /  -1.1 °C 4.4 °F /  -15.3 °C 30.03in /  1016.8hPa WNW 12.5mph /  20.1km/h 25mph /  40.2km/h 33% 0.00in /  0mm 181 W/m2
13:59 29.7 °F /  -1.3 °C 4.6 °F /  -15.2 °C 30.03in /  1016.8hPa NW 11.5mph /  18.5km/h 25mph /  40.2km/h 33.7% 0.00in /  0mm 192 W/m2
14:04 29.6 °F /  -1.3 °C 4.5 °F /  -15.3 °C 30.03in /  1016.8hPa WNW 8.4mph /  13.5km/h 25mph /  40.2km/h 33.6% 0.00in /  0mm 156 W/m2
14:09 29.6 °F /  -1.3 °C 4.7 °F /  -15.2 °C 30.03in /  1016.8hPa NW 9.4mph /  15.1km/h 20mph /  32.2km/h 34% 0.00in /  0mm 183 W/m2
14:14 29.8 °F /  -1.2 °C 4.8 °F /  -15.1 °C 30.03in /  1016.8hPa NW 10.6mph /  17.1km/h 20mph /  32.2km/h 34% 0.00in /  0mm 229 W/m2
14:19 29.9 °F /  -1.2 °C 5 °F /  -15 °C 30.03in /  1016.8hPa NW 6.7mph /  10.8km/h 20mph /  32.2km/h 34% 0.00in /  0mm 329 W/m2
14:24 30.1 °F /  -1.1 °C 5.2 °F /  -14.9 °C 30.03in /  1016.8hPa NNW 4.8mph /  7.7km/h 20mph /  32.2km/h 34% 0.00in /  0mm 204 W/m2
14:29 30.3 °F /  -0.9 °C 5.3 °F /  -14.8 °C 30.03in /  1016.8hPa WNW 6mph /  9.7km/h 20mph /  32.2km/h 34% 0.00in /  0mm 265 W/m2
14:34 30.2 °F /  -1 °C 5.2 °F /  -14.9 °C 30.04in /  1017.2hPa WNW 7.4mph /  11.9km/h 20mph /  32.2km/h 34% 0.00in /  0mm 257 W/m2
14:39 30.1 °F /  -1.1 °C 5.1 °F /  -14.9 °C 30.03in /  1016.8hPa NW 5mph /  8km/h 16mph /  25.7km/h 34% 0.00in /  0mm 54 W/m2
14:44 30.1 °F /  -1.1 °C 5.1 °F /  -14.9 °C 30.04in /  1017.2hPa WNW 6.3mph /  10.1km/h 17mph /  27.4km/h 34% 0.00in /  0mm 77 W/m2
14:49 30 °F /  -1.1 °C 5.2 °F /  -14.9 °C 30.04in /  1017.2hPa WNW 11mph /  17.7km/h 19mph /  30.6km/h 34.2% 0.00in /  0mm 227 W/m2
14:54 29.8 °F /  -1.2 °C 5 °F /  -15 °C 30.04in /  1017.2hPa WNW 10.7mph /  17.2km/h 19mph /  30.6km/h 34.2% 0.00in /  0mm 160 W/m2
14:59 29.5 °F /  -1.4 °C 5.2 °F /  -14.9 °C 30.04in /  1017.2hPa NW 9.6mph /  15.4km/h 19mph /  30.6km/h 35% 0.00in /  0mm 60 W/m2
15:04 29.4 °F /  -1.4 °C 5.1 °F /  -14.9 °C 30.04in /  1017.2hPa WNW 9.2mph /  14.8km/h 19mph /  30.6km/h 35% 0.00in /  0mm 30 W/m2
15:09 29.4 °F /  -1.4 °C 5.1 °F /  -14.9 °C 30.04in /  1017.2hPa WNW 9.8mph /  15.8km/h 20mph /  32.2km/h 35% 0.00in /  0mm 28 W/m2
15:14 29.3 °F /  -1.5 °C 5.1 °F /  -14.9 °C 30.05in /  1017.5hPa WNW 10.2mph /  16.4km/h 20mph /  32.2km/h 35% 0.00in /  0mm 28 W/m2
15:19 29.2 °F /  -1.6 °C 5.3 °F /  -14.8 °C 30.05in /  1017.5hPa NW 7.5mph /  12.1km/h 20mph /  32.2km/h 35.5% 0.00in /  0mm 28 W/m2
15:24 29.2 °F /  -1.6 °C 5.4 °F /  -14.8 °C 30.05in /  1017.5hPa WNW 7.4mph /  11.9km/h 20mph /  32.2km/h 35.8% 0.00in /  0mm 28 W/m2
15:29 29.2 °F /  -1.6 °C 5.6 °F /  -14.7 °C 30.05in /  1017.5hPa WNW 7mph /  11.3km/h 20mph /  32.2km/h 36% 0.00in /  0mm 26 W/m2
15:34 29.3 °F /  -1.5 °C 5.7 °F /  -14.6 °C 30.05in /  1017.5hPa WNW 8.6mph /  13.8km/h 20mph /  32.2km/h 36% 0.00in /  0mm 26 W/m2
15:39 29.2 °F /  -1.6 °C 5.6 °F /  -14.7 °C 30.05in /  1017.5hPa WNW 9.9mph /  15.9km/h 18mph /  29km/h 36% 0.00in /  0mm 26 W/m2
15:44 29 °F /  -1.7 °C 5.4 °F /  -14.8 °C 30.05in /  1017.5hPa NW 8mph /  12.9km/h 18mph /  29km/h 36% 0.00in /  0mm 25 W/m2
15:49 28.9 °F /  -1.7 °C 5.7 °F /  -14.6 °C 30.04in /  1017.2hPa NW 5.4mph /  8.7km/h 18mph /  29km/h 36.6% 0.00in /  0mm 23 W/m2
15:54 28.8 °F /  -1.8 °C 5.8 °F /  -14.6 °C 30.04in /  1017.2hPa NW 3.6mph /  5.8km/h 18mph /  29km/h 37% 0.00in /  0mm 21 W/m2
15:59 28.9 °F /  -1.7 °C 6.1 °F /  -14.4 °C 30.05in /  1017.5hPa WNW 3.7mph /  6km/h 18mph /  29km/h 37.4% 0.00in /  0mm 19 W/m2
16:04 28.8 °F /  -1.8 °C 6.4 °F /  -14.2 °C 30.05in /  1017.5hPa WNW 5mph /  8km/h 5mph /  8km/h 38% 0.00in /  0mm 18 W/m2
16:09 28.7 °F /  -1.8 °C 6.3 °F /  -14.3 °C 30.05in /  1017.5hPa WNW 5.5mph /  8.9km/h 14mph /  22.5km/h 37.8% 0.00in /  0mm 18 W/m2
16:14 28.6 °F /  -1.9 °C 6.1 °F /  -14.4 °C 30.05in /  1017.5hPa WNW 8.4mph /  13.5km/h 17mph /  27.4km/h 37.8% 0.00in /  0mm 16 W/m2
16:19 28.4 °F /  -2 °C 6.1 °F /  -14.4 °C 30.05in /  1017.5hPa NW 6.2mph /  10km/h 17mph /  27.4km/h 38% 0.00in /  0mm 16 W/m2
16:24 28.3 °F /  -2.1 °C 5.9 °F /  -14.5 °C 30.05in /  1017.5hPa NW 3.7mph /  6km/h 17mph /  27.4km/h 38% 0.00in /  0mm 14 W/m2
16:29 28.1 °F /  -2.2 °C 6.2 °F /  -14.3 °C 30.06in /  1017.8hPa WNW 4.6mph /  7.4km/h 17mph /  27.4km/h 38.6% 0.00in /  0mm 14 W/m2
16:34 28 °F /  -2.2 °C 6.2 °F /  -14.3 °C 30.06in /  1017.8hPa NW 4.1mph /  6.6km/h 17mph /  27.4km/h 39% 0.00in /  0mm 9 W/m2
16:39 27.8 °F /  -2.3 °C 6.2 °F /  -14.3 °C 30.06in /  1017.8hPa WNW 5.6mph /  9km/h 14mph /  22.5km/h 39.4% 0.00in /  0mm 7 W/m2
16:44 27.5 °F /  -2.5 °C 6.4 °F /  -14.2 °C 30.06in /  1017.8hPa WNW 5.9mph /  9.5km/h 14mph /  22.5km/h 40% 0.00in /  0mm 5 W/m2
16:49 27.3 °F /  -2.6 °C 6.2 °F /  -14.3 °C 30.06in /  1017.8hPa WNW 8.8mph /  14.2km/h 16mph /  25.7km/h 40% 0.00in /  0mm 5 W/m2
16:54 27 °F /  -2.8 °C 6.3 °F /  -14.3 °C 30.06in /  1017.8hPa WNW 8.3mph /  13.4km/h 16mph /  25.7km/h 40.8% 0.00in /  0mm 0 W/m2
16:59 26.8 °F /  -2.9 °C 6.2 °F /  -14.3 °C 30.06in /  1017.8hPa WNW 7.3mph /  11.7km/h 16mph /  25.7km/h 41% 0.00in /  0mm 0 W/m2
17:04 26.5 °F /  -3.1 °C 6.1 °F /  -14.4 °C 30.06in /  1017.8hPa WNW 7.8mph /  12.6km/h 18mph /  29km/h 41.1% 0.00in /  0mm 0 W/m2
17:09 26.3 °F /  -3.2 °C 6.4 °F /  -14.2 °C 30.06in /  1017.8hPa WNW 6.2mph /  10km/h 18mph /  29km/h 42% 0.00in /  0mm 0 W/m2
17:14 26.1 °F /  -3.3 °C 6.3 °F /  -14.3 °C 30.06in /  1017.8hPa WNW 7.5mph /  12.1km/h 18mph /  29km/h 42.2% 0.00in /  0mm 0 W/m2
17:19 25.9 °F /  -3.4 °C 6.4 °F /  -14.2 °C 30.06in /  1017.8hPa WNW 9.5mph /  15.3km/h 18mph /  29km/h 42.8% 0.00in /  0mm 0 W/m2
17:24 25.7 °F /  -3.5 °C 6.3 °F /  -14.3 °C 30.06in /  1017.8hPa WNW 8.2mph /  13.2km/h 18mph /  29km/h 43% 0.00in /  0mm 0 W/m2
17:29 25.6 °F /  -3.6 °C 6.2 °F /  -14.3 °C 30.06in /  1017.8hPa WNW 3.8mph /  6.1km/h 18mph /  29km/h 43% 0.00in /  0mm 0 W/m2
17:34 25.5 °F /  -3.6 °C 6.6 °F /  -14.1 °C 30.07in /  1018.2hPa WNW 4.3mph /  6.9km/h 18mph /  29km/h 43.9% 0.00in /  0mm 0 W/m2
17:39 25.3 °F /  -3.7 °C 6.5 °F /  -14.2 °C 30.06in /  1017.8hPa WNW 5.5mph /  8.9km/h 15mph /  24.1km/h 44% 0.00in /  0mm 0 W/m2
17:44 25.2 °F /  -3.8 °C 6.4 °F /  -14.2 °C 30.07in /  1018.2hPa NW 6.1mph /  9.8km/h 16mph /  25.7km/h 44% 0.00in /  0mm 0 W/m2
17:49 25.1 °F /  -3.8 °C 6.3 °F /  -14.3 °C 30.07in /  1018.2hPa NW 6.9mph /  11.1km/h 16mph /  25.7km/h 44% 0.00in /  0mm 0 W/m2
17:54 25 °F /  -3.9 °C 6.2 °F /  -14.3 °C 30.08in /  1018.5hPa WNW 5.7mph /  9.2km/h 16mph /  25.7km/h 44% 0.00in /  0mm 0 W/m2
17:59 25 °F /  -3.9 °C 6.1 °F /  -14.4 °C 30.08in /  1018.5hPa WNW 4.3mph /  6.9km/h 16mph /  25.7km/h 44% 0.00in /  0mm 0 W/m2
18:04 24.9 °F /  -3.9 °C 6.4 °F /  -14.2 °C 30.08in /  1018.5hPa WNW 4.7mph /  7.6km/h 16mph /  25.7km/h 44.6% 0.00in /  0mm 0 W/m2
18:09 24.8 °F /  -4 °C 6.5 °F /  -14.2 °C 30.08in /  1018.5hPa WNW 7mph /  11.3km/h 17mph /  27.4km/h 45% 0.00in /  0mm 0 W/m2
18:14 24.7 °F /  -4.1 °C 6.4 °F /  -14.2 °C 30.07in /  1018.2hPa WNW 6.4mph /  10.3km/h 17mph /  27.4km/h 45% 0.00in /  0mm 0 W/m2
18:19 24.6 °F /  -4.1 °C 6.4 °F /  -14.2 °C 30.07in /  1018.2hPa WNW 6.7mph /  10.8km/h 17mph /  27.4km/h 45.2% 0.00in /  0mm 0 W/m2
18:24 24.5 °F /  -4.2 °C 6.4 °F /  -14.2 °C 30.07in /  1018.2hPa WNW 6.7mph /  10.8km/h 17mph /  27.4km/h 45.5% 0.00in /  0mm 0 W/m2
18:29 24.5 °F /  -4.2 °C 6.4 °F /  -14.2 °C 30.08in /  1018.5hPa WNW 6.8mph /  10.9km/h 17mph /  27.4km/h 45.3% 0.00in /  0mm 0 W/m2
18:34 24.5 °F /  -4.2 °C 6.7 °F /  -14.1 °C 30.08in /  1018.5hPa NW 5.6mph /  9km/h 17mph /  27.4km/h 46% 0.00in /  0mm 0 W/m2
18:39 24.5 °F /  -4.2 °C 6.6 °F /  -14.1 °C 30.08in /  1018.5hPa NW 3.7mph /  6km/h 13mph /  20.9km/h 46% 0.00in /  0mm 0 W/m2
18:44 24.4 °F /  -4.2 °C 6.6 °F /  -14.1 °C 30.08in /  1018.5hPa NW 2.4mph /  3.9km/h 13mph /  20.9km/h 46% 0.00in /  0mm 0 W/m2
18:49 24.4 °F /  -4.2 °C 6.6 °F /  -14.1 °C 30.08in /  1018.5hPa NW 4.3mph /  6.9km/h 13mph /  20.9km/h 46% 0.00in /  0mm 0 W/m2
18:54 24.4 °F /  -4.2 °C 6.6 °F /  -14.1 °C 30.08in /  1018.5hPa WNW 1.7mph /  2.7km/h 13mph /  20.9km/h 46% 0.00in /  0mm 0 W/m2
18:59 24.4 °F /  -4.2 °C 6.8 °F /  -14 °C 30.07in /  1018.2hPa NNW 1.3mph /  2.1km/h 13mph /  20.9km/h 46.5% 0.00in /  0mm 0 W/m2
19:04 24.3 °F /  -4.3 °C 6.7 °F /  -14.1 °C 30.08in /  1018.5hPa NNW 2mph /  3.2km/h 13mph /  20.9km/h 46.3% 0.00in /  0mm 0 W/m2
19:09 24.3 °F /  -4.3 °C 7 °F /  -13.9 °C 30.07in /  1018.2hPa NW 3.7mph /  6km/h 9mph /  14.5km/h 47% 0.00in /  0mm 0 W/m2
19:14 24.2 °F /  -4.3 °C 6.9 °F /  -13.9 °C 30.07in /  1018.2hPa NW 3.4mph /  5.5km/h 9mph /  14.5km/h 47% 0.00in /  0mm 0 W/m2
19:19 24.2 °F /  -4.3 °C 6.9 °F /  -13.9 °C 30.07in /  1018.2hPa WNW 5.5mph /  8.9km/h 13mph /  20.9km/h 47% 0.00in /  0mm 0 W/m2
19:24 24.2 °F /  -4.3 °C 6.9 °F /  -13.9 °C 30.07in /  1018.2hPa West 3.9mph /  6.3km/h 13mph /  20.9km/h 47% 0.00in /  0mm 0 W/m2
19:29 24.2 °F /  -4.3 °C 6.9 °F /  -13.9 °C 30.07in /  1018.2hPa WNW 2.2mph /  3.5km/h 13mph /  20.9km/h 47% 0.00in /  0mm 0 W/m2
19:34 24.1 °F /  -4.4 °C 6.8 °F /  -14 °C 30.08in /  1018.5hPa NW 0.4mph /  0.6km/h 13mph /  20.9km/h 47% 0.00in /  0mm 0 W/m2
19:39 24.1 °F /  -4.4 °C 6.8 °F /  -14 °C 30.08in /  1018.5hPa NNW 2.8mph /  4.5km/h 11mph /  17.7km/h 47.1% 0.00in /  0mm 0 W/m2
19:44 24 °F /  -4.4 °C 6.9 °F /  -13.9 °C 30.07in /  1018.2hPa NW 1.1mph /  1.8km/h 11mph /  17.7km/h 47.5% 0.00in /  0mm 0 W/m2
19:49 24 °F /  -4.4 °C 7.1 °F /  -13.8 °C 30.07in /  1018.2hPa NNW 2.3mph /  3.7km/h 11mph /  17.7km/h 47.8% 0.00in /  0mm 0 W/m2
19:54 23.9 °F /  -4.5 °C 7.1 °F /  -13.8 °C 30.07in /  1018.2hPa NW 2.6mph /  4.2km/h 11mph /  17.7km/h 48% 0.00in /  0mm 0 W/m2
19:59 23.9 °F /  -4.5 °C 7.1 °F /  -13.8 °C 30.07in /  1018.2hPa WNW 3.6mph /  5.8km/h 11mph /  17.7km/h 48% 0.00in /  0mm 0 W/m2
20:09 23.8 °F /  -4.6 °C 7 °F /  -13.9 °C 30.07in /  1018.2hPa WNW 2.1mph /  3.4km/h 7mph /  11.3km/h 48% 0.00in /  0mm 0 W/m2
20:14 23.8 °F /  -4.6 °C 7 °F /  -13.9 °C 30.07in /  1018.2hPa WNW 4.1mph /  6.6km/h 11mph /  17.7km/h 48% 0.00in /  0mm 0 W/m2
20:19 23.7 °F /  -4.6 °C 7 °F /  -13.9 °C 30.07in /  1018.2hPa NW 2.9mph /  4.7km/h 11mph /  17.7km/h 48.3% 0.00in /  0mm 0 W/m2
20:24 23.6 °F /  -4.7 °C 7 °F /  -13.9 °C 30.07in /  1018.2hPa NW 5.5mph /  8.9km/h 11mph /  17.7km/h 48.4% 0.00in /  0mm 0 W/m2
20:29 23.6 °F /  -4.7 °C 7.2 °F /  -13.8 °C 30.07in /  1018.2hPa NW 5.5mph /  8.9km/h 11mph /  17.7km/h 48.8% 0.00in /  0mm 0 W/m2
20:34 23.5 °F /  -4.7 °C 7.2 °F /  -13.8 °C 30.07in /  1018.2hPa WNW 7.2mph /  11.6km/h 14mph /  22.5km/h 49% 0.00in /  0mm 0 W/m2
20:39 23.5 °F /  -4.7 °C 7.2 °F /  -13.8 °C 30.07in /  1018.2hPa NW 6.2mph /  10km/h 14mph /  22.5km/h 49% 0.00in /  0mm 0 W/m2
20:44 23.5 °F /  -4.7 °C 7.1 °F /  -13.8 °C 30.07in /  1018.2hPa WNW 5.3mph /  8.5km/h 14mph /  22.5km/h 49% 0.00in /  0mm 0 W/m2
20:49 23.4 °F /  -4.8 °C 7.4 °F /  -13.7 °C 30.07in /  1018.2hPa NW 5.4mph /  8.7km/h 14mph /  22.5km/h 49.6% 0.00in /  0mm 0 W/m2
20:54 23.4 °F /  -4.8 °C 7.5 °F /  -13.6 °C 30.08in /  1018.5hPa NW 5.9mph /  9.5km/h 14mph /  22.5km/h 50% 0.00in /  0mm 0 W/m2
20:59 23.4 °F /  -4.8 °C 7.5 °F /  -13.6 °C 30.07in /  1018.2hPa WNW 6.1mph /  9.8km/h 14mph /  22.5km/h 50% 0.00in /  0mm 0 W/m2
21:04 23.4 °F /  -4.8 °C 7.5 °F /  -13.6 °C 30.07in /  1018.2hPa WNW 3.5mph /  5.6km/h 14mph /  22.5km/h 50% 0.00in /  0mm 0 W/m2
21:09 23.4 °F /  -4.8 °C 7.5 °F /  -13.6 °C 30.07in /  1018.2hPa WNW 7.3mph /  11.7km/h 13mph /  20.9km/h 50% 0.00in /  0mm 0 W/m2
21:14 23.3 °F /  -4.8 °C 7.4 °F /  -13.7 °C 30.07in /  1018.2hPa WNW 5mph /  8km/h 13mph /  20.9km/h 50% 0.00in /  0mm 0 W/m2
21:19 23.3 °F /  -4.8 °C 7.6 °F /  -13.6 °C 30.07in /  1018.2hPa NW 6.2mph /  10km/h 13mph /  20.9km/h 50.5% 0.00in /  0mm 0 W/m2
21:24 23.3 °F /  -4.8 °C 7.4 °F /  -13.7 °C 30.07in /  1018.2hPa WNW 6mph /  9.7km/h 13mph /  20.9km/h 50% 0.00in /  0mm 0 W/m2
21:29 23.3 °F /  -4.8 °C 7.5 °F /  -13.6 °C 30.07in /  1018.2hPa WNW 5.1mph /  8.2km/h 13mph /  20.9km/h 50.2% 0.00in /  0mm 0 W/m2
21:34 23.3 °F /  -4.8 °C 7.6 °F /  -13.6 °C 30.06in /  1017.8hPa WNW 6mph /  9.7km/h 13mph /  20.9km/h 50.4% 0.00in /  0mm 0 W/m2
21:39 23.3 °F /  -4.8 °C 7.6 °F /  -13.6 °C 30.06in /  1017.8hPa WNW 7.1mph /  11.4km/h 13mph /  20.9km/h 50.5% 0.00in /  0mm 0 W/m2
21:44 23.2 °F /  -4.9 °C 7.6 °F /  -13.6 °C 30.06in /  1017.8hPa WNW 3.9mph /  6.3km/h 13mph /  20.9km/h 50.7% 0.00in /  0mm 0 W/m2
21:49 23.2 °F /  -4.9 °C 7.7 °F /  -13.5 °C 30.07in /  1018.2hPa WNW 4.7mph /  7.6km/h 13mph /  20.9km/h 51% 0.00in /  0mm 0 W/m2
21:54 23.1 °F /  -4.9 °C 7.7 °F /  -13.5 °C 30.07in /  1018.2hPa WNW 4.8mph /  7.7km/h 13mph /  20.9km/h 51% 0.00in /  0mm 0 W/m2
21:59 23.1 °F /  -4.9 °C 7.6 °F /  -13.6 °C 30.07in /  1018.2hPa WNW 2.2mph /  3.5km/h 13mph /  20.9km/h 51% 0.00in /  0mm 0 W/m2
22:04 23 °F /  -5 °C 7.7 °F /  -13.5 °C 30.07in /  1018.2hPa WNW 3.8mph /  6.1km/h 13mph /  20.9km/h 51.3% 0.00in /  0mm 0 W/m2
22:09 22.9 °F /  -5.1 °C 7.8 °F /  -13.4 °C 30.07in /  1018.2hPa WNW 3.8mph /  6.1km/h 9mph /  14.5km/h 51.8% 0.00in /  0mm 0 W/m2
22:14 22.8 °F /  -5.1 °C 7.8 °F /  -13.4 °C 30.07in /  1018.2hPa WNW 4.8mph /  7.7km/h 12mph /  19.3km/h 52% 0.00in /  0mm 0 W/m2
22:19 22.7 °F /  -5.2 °C 7.7 °F /  -13.5 °C 30.07in /  1018.2hPa WNW 4.6mph /  7.4km/h 16mph /  25.7km/h 52% 0.00in /  0mm 0 W/m2
22:24 22.6 °F /  -5.2 °C 7.6 °F /  -13.6 °C 30.07in /  1018.2hPa WNW 5.9mph /  9.5km/h 16mph /  25.7km/h 52% 0.00in /  0mm 0 W/m2
22:29 22.5 °F /  -5.3 °C 7.6 °F /  -13.6 °C 30.07in /  1018.2hPa NW 4.5mph /  7.2km/h 16mph /  25.7km/h 52% 0.00in /  0mm 0 W/m2
22:34 22.5 °F /  -5.3 °C 7.5 °F /  -13.6 °C 30.07in /  1018.2hPa WNW 5.8mph /  9.3km/h 16mph /  25.7km/h 52% 0.00in /  0mm 0 W/m2
22:39 22.5 °F /  -5.3 °C 7.5 °F /  -13.6 °C 30.07in /  1018.2hPa WNW 3.1mph /  5km/h 12mph /  19.3km/h 52.1% 0.00in /  0mm 0 W/m2
22:44 22.4 °F /  -5.3 °C 7.8 °F /  -13.4 °C 30.07in /  1018.2hPa WNW 4.9mph /  7.9km/h 12mph /  19.3km/h 52.9% 0.00in /  0mm 0 W/m2
22:49 22.4 °F /  -5.3 °C 7.6 °F /  -13.6 °C 30.07in /  1018.2hPa NW 4.4mph /  7.1km/h 12mph /  19.3km/h 52.3% 0.00in /  0mm 0 W/m2
22:54 22.3 °F /  -5.4 °C 7.8 °F /  -13.4 °C 30.07in /  1018.2hPa NW 3.6mph /  5.8km/h 12mph /  19.3km/h 53% 0.00in /  0mm 0 W/m2
22:58 22.3 °F /  -5.4 °C 7.8 °F /  -13.4 °C 30.07in /  1018.2hPa WNW 3.2mph /  5.1km/h 12mph /  19.3km/h 53% 0.00in /  0mm 0 W/m2
23:04 22.2 °F /  -5.4 °C 7.7 °F /  -13.5 °C 30.07in /  1018.2hPa WNW 1.6mph /  2.6km/h 4mph /  6.4km/h 53% 0.00in /  0mm 0 W/m2
23:09 22.2 °F /  -5.4 °C 7.7 °F /  -13.5 °C 30.07in /  1018.2hPa WNW 3.5mph /  5.6km/h 10mph /  16.1km/h 53% 0.00in /  0mm 0 W/m2
23:14 22.2 °F /  -5.4 °C 7.7 °F /  -13.5 °C 30.07in /  1018.2hPa WNW 3.5mph /  5.6km/h 10mph /  16.1km/h 53% 0.00in /  0mm 0 W/m2
23:19 22.1 °F /  -5.5 °C 7.6 °F /  -13.6 °C 30.07in /  1018.2hPa NW 5.6mph /  9km/h 16mph /  25.7km/h 53% 0.00in /  0mm 0 W/m2
23:24 22.1 °F /  -5.5 °C 7.6 °F /  -13.6 °C 30.07in /  1018.2hPa NW 4.8mph /  7.7km/h 16mph /  25.7km/h 53% 0.00in /  0mm 0 W/m2
23:29 22 °F /  -5.6 °C 7.5 °F /  -13.6 °C 30.07in /  1018.2hPa NW 3.5mph /  5.6km/h 16mph /  25.7km/h 53% 0.00in /  0mm 0 W/m2
23:34 22 °F /  -5.6 °C 7.5 °F /  -13.6 °C 30.07in /  1018.2hPa WNW 3.1mph /  5km/h 16mph /  25.7km/h 53% 0.00in /  0mm 0 W/m2
23:39 22 °F /  -5.6 °C 7.5 °F /  -13.6 °C 30.07in /  1018.2hPa WNW 2.6mph /  4.2km/h 6mph /  9.7km/h 53% 0.00in /  0mm 0 W/m2
23:44 22 °F /  -5.6 °C 7.5 °F /  -13.6 °C 30.06in /  1017.8hPa NW 2.1mph /  3.4km/h 7mph /  11.3km/h 53% 0.00in /  0mm 0 W/m2
23:49 21.9 °F /  -5.6 °C 7.4 °F /  -13.7 °C 30.06in /  1017.8hPa NW 2.3mph /  3.7km/h 7mph /  11.3km/h 53% 0.00in /  0mm 0 W/m2
23:54 21.8 °F /  -5.7 °C 7.3 °F /  -13.7 °C 30.06in /  1017.8hPa NNW 2.8mph /  4.5km/h 8mph /  12.9km/h 53% 0.00in /  0mm 0 W/m2
23:59 21.8 °F /  -5.7 °C 7.3 °F /  -13.7 °C 30.07in /  1018.2hPa NNW 2.7mph /  4.3km/h 8mph /  12.9km/h 53% 0.00in /  0mm 0 W/m2
Hartford County Weather
Compliments of Weather Underground - 4 mb